Imperial Eagle — V7TK5 — position and weather

sailwx.info

Track history (hours):
 
Tides and Currents Weather Stations Pressure Air Temp Water Temp Dewpoint Dewpoint Depression Visibility Wind Speed Wind Dir Waves Ship Positions

Imperial Eagle

Last reported at 2016-May-22 22:33 UTC. Time now 2016-May-27 12:21 UTC.
Position N 37°58' E 024°38'.

Length 190 m; draft 12.5 m.

Type: Cargo ship. MMSI: 256759020.

Date/timePositionNaut miles runAvg speedWind from/ knotsBaromVisibWave heightAir tempDewpointWater temp
2016-May-22 22:33N 37°58' E 024°38'1413.6
2016-May-22 21:33N 37°45' E 024°33'2813.1
2016-May-22 19:23N 37°21' E 024°13'43113.1
2016-May-21 10:33N 36°22' E 015°20'1414.6
2016-May-21 09:33N 36°24' E 015°03'1514.9
2016-May-21 08:33N 36°26' E 014°44'1514.8
2016-May-21 07:33N 36°28' E 014°26'1414.6
2016-May-21 06:34N 36°32' E 014°09'1414.5
2016-May-21 05:34N 36°36' E 013°51'1414.4
2016-May-21 04:34N 36°42' E 013°35'2014.8
2016-May-21 03:11N 36°48' E 013°11'48414.4
2016-May-19 17:33N 37°04' E 003°06'8914.5
2016-May-19 11:24N 36°49' E 001°16'1214.3
2016-May-19 10:33N 36°47' E 001°01'1414.1
2016-May-19 09:33N 36°45' E 000°44'1413.7
2016-May-19 08:33N 36°43' E 000°27'1413.7
2016-May-19 07:33N 36°40' E 000°10'2713.7
2016-May-19 05:33N 36°36' W 000°24'1413.6
2016-May-19 04:32N 36°33' W 000°41'1313.6
2016-May-19 03:33N 36°31' W 000°57'1714.4
2016-May-19 02:23N 36°28' W 001°18'1315.2
2016-May-19 01:33N 36°26' W 001°33'1514.7
2016-May-19 00:33N 36°24' W 001°51'17014.2
2016-May-18 12:33N 35°58' W 005°20'10312.8
2016-May-18 04:33N 35°55' W 007°26'9012.7
2016-May-17 21:28N 36°12' W 009°16'2612.8
2016-May-17 19:26N 36°16' W 009°47'8912.8
2016-May-17 12:29N 36°42' W 011°34'8112.8
2016-May-17 06:07N 37°08' W 013°10'2112.6
2016-May-17 04:27N 37°15' W 013°35'49513.4
2016-May-15 15:28N 39°26' W 023°43'1213.2
2016-May-15 14:33N 39°29' W 023°58'1313.2
2016-May-15 13:33N 39°32' W 024°15'16613.4
2016-May-15 01:11N 40°02' W 027°47'813.2
2016-May-15 00:32N 40°03' W 027°58'1313.3
2016-May-14 23:33N 40°06' W 028°15'1313.4
2016-May-14 22:33N 40°08' W 028°32'1413.4
2016-May-14 21:31N 40°10' W 028°50'1313.4
2016-May-14 20:33N 40°12' W 029°07'1513.5
2016-May-14 19:26N 40°15' W 029°26'  
Track history (hours):
 
Tides and Currents Weather Stations Pressure Air Temp Water Temp Dewpoint Dewpoint Depression Visibility Wind Speed Wind Dir Waves Ship Positions

Imperial Eagle

Last reported at 2016-May-22 22:33 UTC. Time now 2016-May-27 12:21 UTC.
Position N 37°58' E 024°38'.

Length 190 m; draft 12.5 m.

Type: Cargo ship. MMSI: 256759020.

Date/timePositionNaut miles runAvg speedWind from/ knotsBaromVisibWave heightAir tempDewpointWater temp
2016-May-22 22:33N 37°58' E 024°38'1413.6
2016-May-22 21:33N 37°45' E 024°33'2813.1
2016-May-22 19:23N 37°21' E 024°13'43113.1
2016-May-21 10:33N 36°22' E 015°20'1414.6
2016-May-21 09:33N 36°24' E 015°03'1514.9
2016-May-21 08:33N 36°26' E 014°44'1514.8
2016-May-21 07:33N 36°28' E 014°26'1414.6
2016-May-21 06:34N 36°32' E 014°09'1414.5
2016-May-21 05:34N 36°36' E 013°51'1414.4
2016-May-21 04:34N 36°42' E 013°35'2014.8
2016-May-21 03:11N 36°48' E 013°11'48414.4
2016-May-19 17:33N 37°04' E 003°06'8914.5
2016-May-19 11:24N 36°49' E 001°16'1214.3
2016-May-19 10:33N 36°47' E 001°01'1414.1
2016-May-19 09:33N 36°45' E 000°44'1413.7
2016-May-19 08:33N 36°43' E 000°27'1413.7
2016-May-19 07:33N 36°40' E 000°10'2713.7
2016-May-19 05:33N 36°36' W 000°24'1413.6
2016-May-19 04:32N 36°33' W 000°41'1313.6
2016-May-19 03:33N 36°31' W 000°57'1714.4
2016-May-19 02:23N 36°28' W 001°18'1315.2
2016-May-19 01:33N 36°26' W 001°33'1514.7
2016-May-19 00:33N 36°24' W 001°51'17014.2
2016-May-18 12:33N 35°58' W 005°20'10312.8
2016-May-18 04:33N 35°55' W 007°26'9012.7
2016-May-17 21:28N 36°12' W 009°16'2612.8
2016-May-17 19:26N 36°16' W 009°47'8912.8
2016-May-17 12:29N 36°42' W 011°34'8112.8
2016-May-17 06:07N 37°08' W 013°10'2112.6
2016-May-17 04:27N 37°15' W 013°35'49513.4
2016-May-15 15:28N 39°26' W 023°43'1213.2
2016-May-15 14:33N 39°29' W 023°58'1313.2
2016-May-15 13:33N 39°32' W 024°15'16613.4
2016-May-15 01:11N 40°02' W 027°47'813.2
2016-May-15 00:32N 40°03' W 027°58'1313.3
2016-May-14 23:33N 40°06' W 028°15'1313.4
2016-May-14 22:33N 40°08' W 028°32'1413.4
2016-May-14 21:31N 40°10' W 028°50'1313.4
2016-May-14 20:33N 40°12' W 029°07'1513.5
2016-May-14 19:26N 40°15' W 029°26'  

Dump ship's entire track history